Time;durP1;ratioP1;P1;durP2;ratioP2;P2;SDS_P1;SDS_P2;PMS_P1;PMS_P2;Temp;Humidity;BMP_temperature;BMP_pressure;BME280_temperature;BME280_humidity;BME280_pressure;Samples;Min_cycle;Max_cycle;Signal;HPM_P1;HPM_P2
2021/10/13 15:40:17;;;;;;;6.10;2.38;;;;;;;9.94;68.71;101489.41;5056933;28;20396;-42
2021/10/13 15:42:43;;;;;;;2.58;1.98;;;;;;;9.96;68.38;101492.91;5008370;28;20044;-43
2021/10/13 15:45:10;;;;;;;3.75;2.92;;;;;;;9.97;68.27;101489.44;5043548;28;20025;-44
2021/10/13 15:47:35;;;;;;;2.38;2.20;;;;;;;9.99;68.54;101492.94;5017560;28;20040;-44
2021/10/13 15:50:01;;;;;;;2.42;2.22;;;;;;;9.99;68.54;101488.56;5023354;28;20017;-44
2021/10/13 15:52:27;;;;;;;2.53;2.33;;;;;;;10.00;68.35;101495.59;5027269;28;20038;-45
2021/10/13 15:54:52;;;;;;;3.50;2.97;;;;;;;10.01;68.24;101502.63;5027577;28;20494;-44
2021/10/13 15:57:18;;;;;;;2.75;2.50;;;;;;;10.03;68.49;101504.41;5023331;28;20108;-43
2021/10/13 15:59:43;;;;;;;2.17;2.03;;;;;;;10.04;68.57;101504.38;5025372;28;20034;-43
2021/10/13 16:02:08;;;;;;;2.80;2.60;;;;;;;10.05;68.33;101507.91;5026331;28;20065;-43
2021/10/13 16:04:33;;;;;;;2.33;2.13;;;;;;;10.05;68.65;101511.44;5027308;28;20491;-45
2021/10/13 16:06:59;;;;;;;2.13;2.03;;;;;;;10.06;68.38;101509.69;5023860;28;20065;-45
2021/10/13 16:09:24;;;;;;;2.42;2.22;;;;;;;10.06;68.68;101507.94;5026461;28;20112;-43
2021/10/13 16:11:49;;;;;;;2.60;2.40;;;;;;;10.06;68.40;101515.84;5022380;28;20057;-44
2021/10/13 16:14:47;;;;;;;2.72;2.53;;;;;;;10.08;68.63;101515.84;5022252;28;20146;-44
2021/10/13 16:17:12;;;;;;;2.33;2.13;;;;;;;10.07;68.39;101507.06;5020826;28;20037;-44
2021/10/13 16:19:38;;;;;;;2.50;2.20;;;;;;;10.08;68.53;101511.47;5025265;28;20079;-44
2021/10/13 16:22:04;;;;;;;2.30;2.20;;;;;;;10.08;68.61;101514.09;5021925;28;20113;-45
2021/10/13 16:24:30;;;;;;;2.67;2.47;;;;;;;10.08;68.62;101514.09;5026392;28;20029;-44
2021/10/13 16:26:55;;;;;;;2.25;2.15;;;;;;;10.10;68.51;101511.44;5025521;28;20022;-43
2021/10/13 16:29:20;;;;;;;2.40;2.20;;;;;;;10.10;68.60;101516.72;5023257;28;20029;-44
2021/10/13 16:31:47;;;;;;;3.80;2.35;;;;;;;10.09;68.59;101515.88;5019920;28;20560;-45
2021/10/13 16:34:14;;;;;;;2.72;2.40;;;;;;;10.11;68.38;101519.38;5025197;28;20060;-44
2021/10/13 16:36:44;;;;;;;2.30;2.20;;;;;;;10.13;68.66;101524.66;5025947;28;20547;-44
2021/10/13 16:39:10;;;;;;;2.30;2.10;;;;;;;10.12;68.65;101522.91;5023805;28;20116;-45
2021/10/13 16:41:35;;;;;;;2.42;2.30;;;;;;;10.13;68.62;101515.00;5027180;28;20034;-46
2021/10/13 16:44:01;;;;;;;2.08;1.85;;;;;;;10.14;68.62;101515.91;5025868;28;20148;-45
2021/10/13 16:46:26;;;;;;;2.20;2.08;;;;;;;10.13;68.69;101520.28;5025668;28;20095;-43
2021/10/13 16:48:51;;;;;;;1.95;1.85;;;;;;;10.14;68.50;101524.66;5024641;28;20475;-43
2021/10/13 16:51:18;;;;;;;2.47;2.28;;;;;;;10.14;68.71;101524.66;5016982;28;20117;-43
2021/10/13 16:53:43;;;;;;;3.30;1.90;;;;;;;10.14;68.40;101516.75;5011189;28;20025;-43
2021/10/13 16:56:09;;;;;;;2.30;2.10;;;;;;;10.16;68.64;101518.53;5008911;28;20041;-44
2021/10/13 16:58:34;;;;;;;2.53;2.33;;;;;;;10.16;68.50;101526.44;5011285;28;20026;-44
2021/10/13 17:01:03;;;;;;;2.53;2.33;;;;;;;10.16;68.73;101531.69;5008102;28;20065;-42
2021/10/13 17:03:31;;;;;;;2.42;2.22;;;;;;;10.18;68.75;101524.69;5005293;28;20034;-42
2021/10/13 17:05:57;;;;;;;2.67;2.42;;;;;;;10.17;68.50;101523.81;5002583;28;20026;-42
2021/10/13 17:08:22;;;;;;;4.13;2.30;;;;;;;10.18;68.24;101533.50;5005324;28;20373;-46
2021/10/13 17:10:47;;;;;;;2.90;2.70;;;;;;;10.18;68.60;101529.97;5008308;28;20064;-44
2021/10/13 17:13:13;;;;;;;2.85;2.45;;;;;;;10.19;68.72;101534.38;5010730;28;20134;-43
2021/10/13 17:15:38;;;;;;;2.75;2.30;;;;;;;10.20;68.74;101538.78;5009939;28;20052;-44
2021/10/13 17:18:04;;;;;;;2.20;1.98;;;;;;;10.20;68.52;101544.06;4997596;28;20028;-43
2021/10/13 17:20:33;;;;;;;4.15;2.42;;;;;;;10.19;68.65;101537.00;5037787;28;20030;-42
2021/10/13 17:22:59;;;;;;;2.17;1.98;;;;;;;10.20;68.69;101533.50;5006949;28;20638;-42
2021/10/13 17:25:25;;;;;;;2.40;2.25;;;;;;;10.21;68.62;101540.53;5010053;28;20030;-44
2021/10/13 17:27:50;;;;;;;2.05;1.95;;;;;;;10.21;68.44;101540.53;5008211;28;20030;-44
2021/10/13 17:30:15;;;;;;;2.20;2.10;;;;;;;10.21;68.46;101536.13;5039966;28;20026;-44
2021/10/13 17:32:41;;;;;;;2.30;2.10;;;;;;;10.21;68.62;101535.28;5011992;28;20021;-44
2021/10/13 17:35:07;;;;;;;2.25;2.10;;;;;;;10.21;68.89;101541.41;5010657;28;20049;-44
2021/10/13 17:37:32;;;;;;;2.05;1.95;;;;;;;10.21;68.67;101541.41;5008314;28;20030;-42
2021/10/13 17:39:58;;;;;;;2.60;2.40;;;;;;;10.23;68.66;101544.06;5004947;28;20116;-43
2021/10/13 17:42:23;;;;;;;2.35;2.15;;;;;;;10.22;68.54;101542.28;5008561;28;20050;-43
2021/10/13 17:44:48;;;;;;;2.88;2.13;;;;;;;10.22;68.71;101547.56;5008006;28;20057;-43
2021/10/13 17:47:14;;;;;;;2.08;1.98;;;;;;;10.24;68.59;101553.75;5009573;28;20030;-44
2021/10/13 17:49:39;;;;;;;2.40;2.30;;;;;;;10.22;68.73;101553.72;5001144;28;20053;-44
2021/10/13 17:52:06;;;;;;;2.45;2.25;;;;;;;10.23;68.75;101555.50;5009042;28;20491;-44
2021/10/13 17:54:35;;;;;;;2.60;2.40;;;;;;;10.25;68.52;101558.13;5005363;28;20034;-44
2021/10/13 17:57:00;;;;;;;2.30;2.15;;;;;;;10.23;68.73;101557.22;5007623;28;20084;-42
2021/10/13 17:59:25;;;;;;;2.55;2.35;;;;;;;10.25;68.58;101563.41;5008364;28;20307;-43
2021/10/13 18:01:51;;;;;;;2.08;1.98;;;;;;;10.25;68.77;101566.06;5009064;28;20030;-44
2021/10/13 18:04:16;;;;;;;2.60;2.40;;;;;;;10.25;68.92;101558.13;5004494;28;20096;-43
2021/10/13 18:06:41;;;;;;;2.72;2.53;;;;;;;10.26;68.50;101568.69;5006559;28;21312;-42
2021/10/13 18:09:13;;;;;;;2.80;2.60;;;;;;;10.25;68.63;101564.31;5013590;28;20494;-42
2021/10/13 18:11:39;;;;;;;2.40;2.20;;;;;;;10.25;68.72;101569.59;5006599;28;20029;-45
2021/10/13 18:14:05;;;;;;;2.88;2.38;;;;;;;10.26;68.83;101559.91;5001438;28;20041;-44
2021/10/13 18:16:30;;;;;;;2.60;2.40;;;;;;;10.25;68.59;101563.41;5001451;28;20052;-46
2021/10/13 18:18:56;;;;;;;2.65;2.45;;;;;;;10.26;68.52;101566.06;5002533;28;20104;-43
2021/10/13 18:21:24;;;;;;;4.55;2.67;;;;;;;10.26;68.78;101563.44;5004495;28;20034;-44
2021/10/13 18:23:50;;;;;;;3.03;2.83;;;;;;;10.27;68.80;101566.94;5004675;28;20038;-44
2021/10/13 18:26:15;;;;;;;2.63;2.42;;;;;;;10.27;68.83;101565.19;5007469;28;20505;-43
2021/10/13 18:28:47;;;;;;;2.20;2.10;;;;;;;10.27;68.73;101566.94;5007700;28;20109;-44
2021/10/13 18:31:12;;;;;;;2.58;2.38;;;;;;;10.29;68.71;101569.56;5006308;28;20491;-43
2021/10/13 18:33:38;;;;;;;2.88;2.67;;;;;;;10.30;68.81;101574.84;5005764;28;20087;-43
2021/10/13 18:36:03;;;;;;;3.08;2.67;;;;;;;10.30;68.48;101577.50;5008877;28;20030;-44
2021/10/13 18:38:29;;;;;;;2.60;2.40;;;;;;;10.30;68.48;101577.50;5007147;28;20029;-44
2021/10/13 18:41:00;;;;;;;2.85;2.65;;;;;;;10.30;68.77;101580.13;5005428;28;20025;-45
2021/10/13 18:43:25;;;;;;;;;;;;;;;10.31;68.85;101583.66;5039328;28;20103;-45
2021/10/13 18:45:50;;;;;;;2.87;2.67;;;;;;;10.28;68.68;101584.53;5002926;28;20417;-44
2021/10/13 18:48:16;;;;;;;2.95;2.75;;;;;;;10.30;68.60;101587.19;5006917;28;20308;-44
2021/10/13 18:50:41;;;;;;;2.97;2.75;;;;;;;10.29;68.85;101577.47;5009919;28;20049;-44
2021/10/13 18:53:06;;;;;;;2.92;2.63;;;;;;;10.30;68.62;101588.03;5009120;28;20045;-44
2021/10/13 18:55:32;;;;;;;3.20;2.90;;;;;;;10.29;68.76;101586.28;5007718;28;20068;-44
2021/10/13 18:57:57;;;;;;;3.13;2.72;;;;;;;10.30;68.60;101581.91;5006412;28;20041;-43
2021/10/13 19:00:24;;;;;;;3.45;2.70;;;;;;;10.31;68.82;101578.38;5010237;28;20033;-43
2021/10/13 19:02:51;;;;;;;3.53;2.70;;;;;;;10.30;68.96;101572.22;5009683;28;20460;-43
2021/10/13 19:05:16;;;;;;;3.83;2.70;;;;;;;10.32;68.90;101585.41;5005134;28;20558;-44
2021/10/13 19:07:42;;;;;;;2.80;2.60;;;;;;;10.32;68.72;101583.69;5006975;28;20017;-43
2021/10/13 19:10:08;;;;;;;3.05;2.75;;;;;;;10.32;68.81;101580.16;5006884;28;20069;-45
2021/10/13 19:12:36;;;;;;;2.90;2.67;;;;;;;10.31;68.66;101579.28;5011183;28;20080;-45
2021/10/13 19:15:07;;;;;;;3.55;2.58;;;;;;;10.32;68.95;101578.41;5005671;28;20535;-43
2021/10/13 19:17:32;;;;;;;3.10;2.80;;;;;;;10.32;68.77;101581.03;5010379;28;20025;-43
2021/10/13 19:19:58;;;;;;;4.30;3.13;;;;;;;10.33;68.68;101577.53;5007074;28;20040;-44
2021/10/13 19:22:24;;;;;;;3.40;3.10;;;;;;;10.33;68.94;101587.19;5008902;28;20156;-43
2021/10/13 19:24:49;;;;;;;3.08;2.30;;;;;;;10.33;68.74;101576.63;5007567;28;20046;-44
2021/10/13 19:27:14;;;;;;;3.25;2.95;;;;;;;10.33;68.62;101582.78;5009778;28;20383;-43
2021/10/13 19:29:40;;;;;;;2.90;2.70;;;;;;;10.33;68.79;101588.06;5009020;28;20096;-43
2021/10/13 19:32:06;;;;;;;3.00;2.80;;;;;;;10.34;68.76;101589.81;5005264;28;20038;-43
2021/10/13 19:34:34;;;;;;;3.25;2.95;;;;;;;10.34;68.98;101595.09;5007518;28;20030;-43
2021/10/13 19:36:59;;;;;;;2.88;2.65;;;;;;;10.33;68.89;101588.06;5007417;28;20400;-44
2021/10/13 19:39:29;;;;;;;2.85;2.65;;;;;;;10.34;68.96;101591.59;5008005;28;20026;-44
2021/10/13 19:41:54;;;;;;;2.90;2.70;;;;;;;10.34;68.74;101600.38;5010239;28;20038;-45
2021/10/13 19:44:21;;;;;;;3.63;2.60;;;;;;;10.35;68.75;101596.00;5009546;28;20365;-43
2021/10/13 19:46:47;;;;;;;3.15;2.95;;;;;;;10.35;68.93;101607.44;5009130;28;20052;-46
2021/10/13 19:49:12;;;;;;;2.70;2.50;;;;;;;10.35;68.54;101601.28;5008895;28;20503;-44
2021/10/13 19:51:37;;;;;;;3.30;2.65;;;;;;;10.36;69.10;101609.19;5011244;28;20037;-43
2021/10/13 19:54:03;;;;;;;2.70;2.47;;;;;;;10.35;69.06;101607.44;5008928;28;20018;-43
2021/10/13 19:56:28;;;;;;;3.03;2.80;;;;;;;10.36;68.79;101603.03;5010545;28;20033;-44
2021/10/13 19:58:53;;;;;;;3.28;2.97;;;;;;;10.35;69.04;101607.44;5011979;28;20110;-43
2021/10/13 20:01:24;;;;;;;3.30;3.10;;;;;;;10.37;68.92;101600.41;5012586;28;20085;-42
2021/10/13 20:03:50;;;;;;;2.90;2.60;;;;;;;10.36;68.89;101608.31;5010344;28;20440;-43
2021/10/13 20:06:15;;;;;;;2.83;2.40;;;;;;;10.36;68.83;101611.84;5011755;28;20104;-44
2021/10/13 20:08:40;;;;;;;3.05;2.80;;;;;;;10.38;69.09;101611.84;5008040;28;20022;-43
2021/10/13 20:11:05;;;;;;;2.95;2.75;;;;;;;10.37;69.03;101610.94;5009834;28;20619;-45
2021/10/13 20:13:32;;;;;;;3.63;2.70;;;;;;;10.36;69.00;101603.91;5010279;28;20068;-45
2021/10/13 20:15:57;;;;;;;2.78;2.58;;;;;;;10.37;69.04;101604.81;5012340;28;20037;-43
2021/10/13 20:18:22;;;;;;;3.08;2.78;;;;;;;10.36;68.95;101600.38;5011842;28;20030;-43
2021/10/13 20:20:48;;;;;;;4.18;3.17;;;;;;;10.37;69.04;101604.81;5010079;28;20406;-43
2021/10/13 20:23:16;;;;;;;3.85;2.70;;;;;;;10.38;69.01;101612.72;5009031;28;20105;-43
2021/10/13 20:25:42;;;;;;;3.42;3.00;;;;;;;10.36;68.75;101606.56;5009131;28;20410;-43
2021/10/13 20:28:07;;;;;;;2.92;2.70;;;;;;;10.37;68.76;101608.31;5006680;28;20037;-42
2021/10/13 20:30:35;;;;;;;3.10;2.90;;;;;;;10.37;68.79;101610.94;5010967;28;20068;-43
2021/10/13 20:33:01;;;;;;;3.35;3.05;;;;;;;10.39;68.79;101600.41;5020470;28;20120;-42
2021/10/13 20:35:26;;;;;;;3.08;2.78;;;;;;;10.38;68.96;101612.72;5013720;28;20034;-44
2021/10/13 20:37:51;;;;;;;3.75;2.83;;;;;;;10.39;68.78;101613.59;5008402;28;20028;-42
2021/10/13 20:40:17;;;;;;;3.17;2.88;;;;;;;10.40;69.08;101620.63;5042212;28;20030;-43
2021/10/13 20:42:42;;;;;;;3.15;2.95;;;;;;;10.39;68.94;101611.84;5015778;28;20029;-42
2021/10/13 20:45:08;;;;;;;3.65;3.13;;;;;;;10.40;69.00;101605.69;5039479;28;20030;-42
2021/10/13 20:47:33;;;;;;;3.53;3.22;;;;;;;10.39;68.98;101606.59;5037724;28;20037;-42
2021/10/13 20:49:59;;;;;;;3.35;3.05;;;;;;;10.39;69.01;101614.50;5013598;28;20380;-43
2021/10/13 20:52:25;;;;;;;2.85;2.65;;;;;;;10.39;68.99;101609.22;5043104;28;20018;-42
2021/10/13 20:54:51;;;;;;;3.22;2.83;;;;;;;10.39;69.12;101609.22;5016958;28;20033;-42
2021/10/13 20:57:16;;;;;;;3.22;2.97;;;;;;;10.40;68.91;101604.81;5013669;28;20064;-42
2021/10/13 20:59:42;;;;;;;3.28;2.97;;;;;;;10.39;68.87;101603.94;5013906;28;20067;-42
2021/10/13 21:02:07;;;;;;;3.40;3.03;;;;;;;10.40;68.87;101605.69;5011739;28;20061;-44
2021/10/13 21:04:32;;;;;;;2.70;2.50;;;;;;;10.39;69.03;101614.50;5011281;28;20026;-42
2021/10/13 21:06:58;;;;;;;3.45;2.80;;;;;;;10.40;68.88;101610.97;5011658;28;20415;-45
2021/10/13 21:09:23;;;;;;;4.05;3.25;;;;;;;10.40;68.94;101612.72;5012981;28;20018;-42
2021/10/13 21:11:48;;;;;;;5.93;3.05;;;;;;;10.40;69.11;101610.09;5005793;28;20160;-44
2021/10/13 21:14:14;;;;;;;3.72;2.70;;;;;;;10.40;69.00;101603.06;5013399;28;20108;-44
2021/10/13 21:16:39;;;;;;;3.60;2.95;;;;;;;10.40;68.97;101600.44;5013509;28;20041;-41
2021/10/13 21:19:04;;;;;;;2.80;2.60;;;;;;;10.42;68.88;101610.09;5012381;28;20061;-42
2021/10/13 21:21:30;;;;;;;3.60;2.75;;;;;;;10.42;69.07;101607.47;5010395;28;20037;-41
2021/10/13 21:23:55;;;;;;;5.00;2.83;;;;;;;10.43;69.20;101603.97;5013853;28;20028;-42
2021/10/13 21:26:20;;;;;;;4.15;2.95;;;;;;;10.42;68.94;101602.19;5010973;28;20034;-43
2021/10/13 21:28:46;;;;;;;2.53;2.33;;;;;;;10.42;68.98;101607.47;5009170;28;20387;-43
2021/10/13 21:31:11;;;;;;;2.78;2.58;;;;;;;10.42;69.08;101607.47;5011393;28;20072;-42
2021/10/13 21:33:37;;;;;;;3.30;3.00;;;;;;;10.42;69.09;101610.09;5015462;28;20075;-42
2021/10/13 21:36:03;;;;;;;3.78;2.38;;;;;;;10.40;68.98;101600.44;5011847;28;20038;-43
2021/10/13 21:38:28;;;;;;;3.97;2.78;;;;;;;10.43;68.99;101609.25;5011092;28;20034;-42
2021/10/13 21:40:54;;;;;;;4.75;3.00;;;;;;;10.40;68.94;101603.06;5008520;28;20045;-42
2021/10/13 21:43:19;;;;;;;2.95;2.50;;;;;;;10.43;69.13;101601.34;5015452;28;20040;-43
2021/10/13 21:45:45;;;;;;;3.00;2.40;;;;;;;10.43;69.16;101606.63;5023167;28;20079;-42
2021/10/13 21:48:12;;;;;;;4.10;2.88;;;;;;;10.44;69.08;101605.72;5010234;28;20036;-43
2021/10/13 21:50:38;;;;;;;3.03;2.70;;;;;;;10.42;68.95;101607.47;5013297;28;20033;-43
2021/10/13 21:53:03;;;;;;;2.60;2.40;;;;;;;10.43;69.30;101611.88;5009026;28;20434;-43
2021/10/13 21:55:28;;;;;;;3.30;3.03;;;;;;;10.44;68.97;101613.63;5009161;28;20044;-42
2021/10/13 21:57:53;;;;;;;2.72;2.53;;;;;;;10.43;69.06;101601.34;5010114;28;20034;-42
2021/10/13 22:00:24;;;;;;;2.63;2.40;;;;;;;10.43;69.24;101603.97;5008781;28;20515;-42
2021/10/13 22:02:49;;;;;;;2.90;2.47;;;;;;;10.43;69.32;101606.63;4982184;28;20045;-42
2021/10/13 22:05:14;;;;;;;2.55;2.35;;;;;;;10.43;69.09;101598.69;5002208;28;20057;-42
2021/10/13 22:07:40;;;;;;;2.60;2.33;;;;;;;10.43;69.05;101598.69;5005995;28;20514;-42
2021/10/13 22:10:07;;;;;;;2.70;2.42;;;;;;;10.43;69.33;101598.69;5011353;28;20069;-43
2021/10/13 22:12:33;;;;;;;2.85;2.55;;;;;;;10.45;69.04;101596.97;5012162;28;20395;-42
2021/10/13 22:14:58;;;;;;;2.70;2.50;;;;;;;10.43;68.99;101601.34;5013740;28;20065;-43
2021/10/13 22:17:24;;;;;;;3.97;2.42;;;;;;;10.44;69.22;101603.09;5001063;28;20065;-45
2021/10/13 22:19:49;;;;;;;2.58;2.33;;;;;;;10.43;69.16;101598.69;5000641;28;20033;-42
2021/10/13 22:22:15;;;;;;;2.58;2.30;;;;;;;10.44;69.26;101600.44;4998669;28;20030;-47
2021/10/13 22:24:40;;;;;;;3.45;2.70;;;;;;;10.44;68.94;101596.03;5006640;28;20072;-43
2021/10/13 22:27:05;;;;;;;2.95;2.15;;;;;;;10.43;69.32;101590.78;5001165;28;20552;-45
2021/10/13 22:29:31;;;;;;;2.35;2.15;;;;;;;10.43;69.31;101593.44;4997650;28;20037;-42
2021/10/13 22:31:56;;;;;;;2.97;2.67;;;;;;;10.44;69.20;101589.91;5001494;28;20077;-43
2021/10/13 22:34:21;;;;;;;3.05;2.67;;;;;;;10.43;69.07;101589.00;5006812;28;20038;-41
2021/10/13 22:36:47;;;;;;;2.50;2.30;;;;;;;10.40;69.31;101578.44;5037230;28;20440;-42
2021/10/13 22:39:12;;;;;;;2.78;2.58;;;;;;;10.44;69.15;101585.50;5007040;28;20033;-41
2021/10/13 22:41:37;;;;;;;2.60;2.40;;;;;;;10.44;69.02;101587.28;5011987;28;20034;-43
2021/10/13 22:44:03;;;;;;;2.35;2.15;;;;;;;10.45;69.32;101589.06;5011130;28;20060;-42
2021/10/13 22:46:28;;;;;;;3.08;2.60;;;;;;;10.44;69.26;101584.63;5010944;28;20053;-42
2021/10/13 22:48:53;;;;;;;2.50;2.15;;;;;;;10.44;69.24;101588.13;5008514;28;20372;-43
2021/10/13 22:51:19;;;;;;;2.22;2.03;;;;;;;10.43;69.28;101591.66;5013809;28;20033;-47
2021/10/13 22:53:45;;;;;;;3.35;2.33;;;;;;;10.45;69.06;101587.31;5024976;28;20034;-44
2021/10/13 22:56:11;;;;;;;2.88;2.28;;;;;;;10.45;69.32;101591.69;5033073;28;20036;-42
2021/10/13 22:58:36;;;;;;;3.25;2.50;;;;;;;10.46;69.31;101588.19;5011017;28;20021;-41
2021/10/13 23:01:02;;;;;;;3.10;2.42;;;;;;;10.45;69.38;101583.78;5013760;28;20399;-45
2021/10/13 23:03:27;;;;;;;2.20;2.00;;;;;;;10.45;69.09;101586.41;5011785;28;20033;-42
2021/10/13 23:05:52;;;;;;;2.60;2.40;;;;;;;10.45;69.14;101589.06;5009651;28;20448;-42
2021/10/13 23:08:18;;;;;;;4.63;2.55;;;;;;;10.45;69.13;101582.03;5011070;28;20092;-41
2021/10/13 23:10:43;;;;;;;2.72;2.53;;;;;;;10.45;69.26;101589.06;5012673;28;20041;-43
2021/10/13 23:13:09;;;;;;;3.47;2.25;;;;;;;10.44;69.33;101585.50;5008933;28;20033;-42
2021/10/13 23:15:34;;;;;;;2.67;2.33;;;;;;;10.45;69.44;101591.69;5008538;28;20033;-42
2021/10/13 23:18:01;;;;;;;2.20;2.00;;;;;;;10.44;69.24;101582.84;5038096;28;20032;-42
2021/10/13 23:20:26;;;;;;;2.45;2.25;;;;;;;10.45;69.06;101583.78;5006368;28;20044;-42
2021/10/13 23:22:51;;;;;;;2.90;2.08;;;;;;;10.46;69.33;101588.19;5034004;28;20033;-42
2021/10/13 23:25:17;;;;;;;2.45;2.17;;;;;;;10.45;69.40;101584.69;5036065;28;20030;-44
2021/10/13 23:27:42;;;;;;;2.53;2.17;;;;;;;10.47;69.16;101592.59;5009385;28;20045;-42
2021/10/13 23:30:08;;;;;;;2.50;2.30;;;;;;;10.45;69.18;101589.94;5006021;28;20030;-43
2021/10/13 23:32:33;;;;;;;2.17;1.98;;;;;;;10.45;69.16;101586.41;5012557;28;20038;-43
2021/10/13 23:34:58;;;;;;;2.38;2.17;;;;;;;10.45;69.24;101581.16;5010904;28;20507;-42
2021/10/13 23:37:24;;;;;;;2.38;2.15;;;;;;;10.45;69.64;101578.50;5007840;28;20033;-43
2021/10/13 23:39:49;;;;;;;1.90;1.80;;;;;;;10.44;69.17;101579.34;5006097;28;20034;-42
2021/10/13 23:42:14;;;;;;;2.25;2.15;;;;;;;10.46;69.14;101577.63;5006368;28;20038;-42
2021/10/13 23:44:40;;;;;;;2.95;2.28;;;;;;;10.45;69.33;101582.03;5008880;28;20176;-44
2021/10/13 23:47:05;;;;;;;2.50;2.30;;;;;;;10.46;69.29;101588.19;5037501;28;20455;-43
2021/10/13 23:49:30;;;;;;;4.03;2.15;;;;;;;10.45;69.42;101592.59;5013885;28;20018;-42
2021/10/13 23:51:56;;;;;;;2.90;2.70;;;;;;;10.47;69.38;101589.97;5010493;28;20033;-42
2021/10/13 23:54:21;;;;;;;2.95;2.55;;;;;;;10.47;69.12;101595.25;5010088;28;20022;-42
2021/10/13 23:56:46;;;;;;;1.88;1.77;;;;;;;10.46;69.27;101588.19;5012124;28;20045;-45
2021/10/13 23:59:12;;;;;;;3.00;2.38;;;;;;;10.45;69.32;101587.31;5012513;28;20022;-41
